createdAt,value
2019-02-18T00:00:43.563Z,62.97
2019-02-18T00:03:12.265Z,61.30
2019-02-18T00:05:41.120Z,66.67
2019-02-18T00:08:09.649Z,69.80
2019-02-18T00:10:38.167Z,61.17
2019-02-18T00:13:06.795Z,69.30
2019-02-18T00:15:35.535Z,68.00
2019-02-18T00:18:04.088Z,67.37
2019-02-18T00:20:32.552Z,67.37
2019-02-18T00:23:01.167Z,68.47
2019-02-18T00:25:30.020Z,68.27
2019-02-18T00:27:58.570Z,64.00
2019-02-18T00:30:27.023Z,65.77
2019-02-18T00:32:55.889Z,68.27
2019-02-18T00:35:24.425Z,68.67
2019-02-18T00:37:52.979Z,70.57
2019-02-18T00:40:21.822Z,65.50
2019-02-18T00:42:50.303Z,65.00
2019-02-18T00:45:18.771Z,69.87
2019-02-18T00:47:48.167Z,66.07
2019-02-18T00:50:16.864Z,67.37
2019-02-18T00:52:45.422Z,64.60
2019-02-18T00:55:13.975Z,61.30
2019-02-18T00:57:42.507Z,58.50
2019-02-18T01:00:14.236Z,65.23
2019-02-18T01:02:42.907Z,63.87
2019-02-18T01:05:11.855Z,62.73
2019-02-18T01:07:40.751Z,58.40
2019-02-18T01:10:13.433Z,62.80
2019-02-18T01:12:42.035Z,59.73
2019-02-18T01:15:14.431Z,63.17
2019-02-18T01:17:42.890Z,61.97
2019-02-18T01:20:13.614Z,64.90
2019-02-18T01:22:42.387Z,57.23
2019-02-18T01:25:12.862Z,61.13
2019-02-18T01:27:41.577Z,60.40
2019-02-18T01:30:15.343Z,62.77
2019-02-18T01:32:44.304Z,67.80
2019-02-18T01:35:13.086Z,63.97
2019-02-18T01:37:45.825Z,58.20
2019-02-18T01:40:13.750Z,61.63
2019-02-18T01:42:42.314Z,58.63
2019-02-18T01:45:13.447Z,59.97
2019-02-18T01:47:42.251Z,60.93
2019-02-18T01:50:12.876Z,59.90
2019-02-18T01:52:41.583Z,57.60
2019-02-18T01:55:11.979Z,56.57
2019-02-18T01:57:40.506Z,60.83
2019-02-18T02:00:12.571Z,63.20
2019-02-18T02:02:41.441Z,59.53
2019-02-18T02:05:11.807Z,59.60
2019-02-18T02:07:40.396Z,63.20
2019-02-18T02:10:11.420Z,64.90
2019-02-18T02:12:39.943Z,61.73
2019-02-18T02:15:14.495Z,66.37
2019-02-18T02:17:42.955Z,80.13
2019-02-18T02:20:11.547Z,68.10
2019-02-18T02:22:40.031Z,80.57
2019-02-18T02:25:08.628Z,70.50
2019-02-18T02:27:37.107Z,77.57
2019-02-18T02:30:08.313Z,67.50
2019-02-18T02:32:36.868Z,69.73
2019-02-18T02:35:05.467Z,69.60
2019-02-18T02:37:34.019Z,78.47
2019-02-18T02:40:02.478Z,69.97
2019-02-18T02:42:31.380Z,72.70
2019-02-18T02:44:59.909Z,76.70
2019-02-18T02:47:28.475Z,79.13
2019-02-18T02:49:56.999Z,77.47
2019-02-18T02:52:25.477Z,69.47
2019-02-18T02:54:54.297Z,68.10
2019-02-18T02:57:22.851Z,74.73
2019-02-18T02:59:51.303Z,87.10
2019-02-18T03:02:19.798Z,72.77
2019-02-18T03:04:48.393Z,68.87
2019-02-18T03:07:16.924Z,73.03
2019-02-18T03:09:46.099Z,155.17
2019-02-18T03:12:14.560Z,114.40
2019-02-18T03:14:43.043Z,84.53
2019-02-18T03:17:11.498Z,75.60
2019-02-18T03:19:40.052Z,139.23
2019-02-18T03:22:08.587Z,130.80
2019-02-18T03:24:37.071Z,159.17
2019-02-18T03:27:05.908Z,65.70
2019-02-18T03:29:43.324Z,79.33
2019-02-18T03:32:11.785Z,101.60
2019-02-18T03:34:40.411Z,67.10
2019-02-18T03:37:08.876Z,143.57
2019-02-18T03:39:37.443Z,100.67
2019-02-18T03:42:06.037Z,78.60
2019-02-18T03:44:34.524Z,87.60
2019-02-18T03:47:03.026Z,68.17
2019-02-18T03:49:31.834Z,70.10
2019-02-18T03:52:00.304Z,98.10
2019-02-18T03:54:28.869Z,104.20
2019-02-18T03:56:57.476Z,120.13
2019-02-18T03:59:26.383Z,78.10
2019-02-18T04:01:55.375Z,151.83
2019-02-18T04:04:23.985Z,65.73
2019-02-18T04:06:52.480Z,172.20
2019-02-18T04:09:21.017Z,195.67
2019-02-18T04:11:49.588Z,228.70
2019-02-18T04:14:18.133Z,103.87
2019-02-18T04:16:46.697Z,172.67
2019-02-18T04:19:15.324Z,130.90
2019-02-18T04:21:43.881Z,142.43
2019-02-18T04:24:12.429Z,169.03
2019-02-18T04:26:40.974Z,108.07
2019-02-18T04:29:09.543Z,303.27
2019-02-18T04:31:38.088Z,232.27
2019-02-18T04:34:06.721Z,198.83
2019-02-18T04:36:35.257Z,98.03
2019-02-18T04:39:05.521Z,343.73
2019-02-18T04:41:34.062Z,96.87
2019-02-18T04:44:02.562Z,322.03
2019-02-18T04:46:31.097Z,106.10
2019-02-18T04:48:59.593Z,128.13
2019-02-18T04:51:28.136Z,146.07
2019-02-18T04:53:56.705Z,110.20
2019-02-18T04:56:25.549Z,73.00
2019-02-18T04:58:54.208Z,75.03
2019-02-18T05:01:23.670Z,73.20
2019-02-18T05:03:52.225Z,62.33
2019-02-18T05:06:20.757Z,63.30
2019-02-18T05:08:49.320Z,63.27
2019-02-18T05:11:17.790Z,64.40
2019-02-18T05:13:46.327Z,67.73
2019-02-18T05:16:14.890Z,137.83
2019-02-18T05:18:43.501Z,53.23
2019-02-18T05:21:11.989Z,62.30
2019-02-18T05:23:40.457Z,57.43
2019-02-18T05:26:08.997Z,59.03
2019-02-18T05:28:37.484Z,92.13
2019-02-18T05:31:05.949Z,71.67
2019-02-18T05:33:34.513Z,56.60
2019-02-18T05:36:03.050Z,71.60
2019-02-18T05:38:31.621Z,85.10
2019-02-18T05:41:00.257Z,59.50
2019-02-18T05:43:28.757Z,130.50
2019-02-18T05:45:57.300Z,192.63
2019-02-18T05:48:25.857Z,75.33
2019-02-18T05:50:54.398Z,86.43
2019-02-18T05:53:22.961Z,118.17
2019-02-18T05:55:51.435Z,111.73
2019-02-18T05:58:20.100Z,77.47
2019-02-18T06:00:48.574Z,70.47
2019-02-18T06:03:17.137Z,477.53
2019-02-18T06:05:45.683Z,129.43
2019-02-18T06:08:14.245Z,86.33
2019-02-18T06:10:42.714Z,74.10
2019-02-18T06:13:11.280Z,78.70
2019-02-18T06:15:39.821Z,97.93
2019-02-18T06:18:08.282Z,83.33
2019-02-18T06:20:37.199Z,113.93
2019-02-18T06:23:05.803Z,100.83
2019-02-18T06:25:34.405Z,66.07
2019-02-18T06:28:04.869Z,80.00
2019-02-18T06:30:33.233Z,85.97
2019-02-18T06:33:01.774Z,61.93
2019-02-18T06:35:30.314Z,94.03
2019-02-18T06:37:58.877Z,73.53
2019-02-18T06:40:27.421Z,117.40
2019-02-18T06:42:55.983Z,78.60
2019-02-18T06:45:41.683Z,87.70
2019-02-18T06:48:15.001Z,112.43
2019-02-18T06:50:43.541Z,86.20
2019-02-18T06:53:12.105Z,64.37
2019-02-18T06:55:40.640Z,60.70
2019-02-18T06:58:29.081Z,55.53
2019-02-18T07:00:59.261Z,59.10
2019-02-18T07:03:29.805Z,106.90
2019-02-18T07:05:59.908Z,122.13
2019-02-18T07:08:46.774Z,93.60
2019-02-18T07:11:17.113Z,106.97
2019-02-18T07:13:45.937Z,118.40
2019-02-18T07:16:14.744Z,188.23
2019-02-18T07:18:43.334Z,266.97
2019-02-18T07:21:11.798Z,222.10
2019-02-18T07:23:40.696Z,62.07
2019-02-18T07:26:09.593Z,73.60
2019-02-18T07:28:38.165Z,91.43
2019-02-18T07:31:06.701Z,188.83
2019-02-18T07:33:35.199Z,194.50
2019-02-18T07:36:03.736Z,154.50
2019-02-18T07:38:32.281Z,361.40
2019-02-18T07:41:00.840Z,74.23
2019-02-18T07:43:29.309Z,83.37
2019-02-18T07:45:57.870Z,62.43
2019-02-18T07:48:26.421Z,121.50
2019-02-18T07:50:55.274Z,70.83
2019-02-18T07:53:23.812Z,57.33
2019-02-18T07:55:52.365Z,78.00
2019-02-18T07:58:21.200Z,57.37
2019-02-18T08:00:49.761Z,89.13
2019-02-18T08:03:18.224Z,68.60
2019-02-18T08:05:46.693Z,99.87
2019-02-18T08:08:15.254Z,65.60
2019-02-18T08:10:43.857Z,75.13
2019-02-18T08:13:12.353Z,85.57
2019-02-18T08:15:40.892Z,102.37
2019-02-18T08:18:09.461Z,137.03
2019-02-18T08:20:38.433Z,63.37
2019-02-18T08:23:06.929Z,78.80
2019-02-18T08:25:35.535Z,89.43
2019-02-18T08:28:04.241Z,63.23
2019-02-18T08:30:32.845Z,68.23
2019-02-18T08:33:01.419Z,85.70
2019-02-18T08:35:29.949Z,95.80
2019-02-18T08:37:58.432Z,70.37
2019-02-18T08:40:27.210Z,62.30
2019-02-18T08:42:55.749Z,80.00
2019-02-18T08:45:24.310Z,61.40
2019-02-18T08:47:52.853Z,60.73
2019-02-18T08:50:21.417Z,79.03
2019-02-18T08:52:49.880Z,58.77
2019-02-18T08:55:18.491Z,68.33
2019-02-18T08:57:46.981Z,79.90
2019-02-18T09:00:17.208Z,84.67
2019-02-18T09:02:45.744Z,65.27
2019-02-18T09:05:14.380Z,62.63
2019-02-18T09:07:43.014Z,57.93
2019-02-18T09:10:13.616Z,57.67
2019-02-18T09:12:42.076Z,63.20
2019-02-18T09:15:13.952Z,68.97
2019-02-18T09:17:41.833Z,65.40
2019-02-18T09:20:10.498Z,67.53
2019-02-18T09:22:43.597Z,67.70
2019-02-18T09:25:22.790Z,61.30
2019-02-18T09:27:51.766Z,64.20
2019-02-18T09:30:21.970Z,65.87
2019-02-18T09:32:50.510Z,63.50
2019-02-18T09:35:19.068Z,65.50
2019-02-18T09:37:47.608Z,63.07
2019-02-18T09:40:16.179Z,59.17
2019-02-18T09:42:44.717Z,55.57
2019-02-18T09:45:15.018Z,59.47
2019-02-18T09:47:43.698Z,54.63
2019-02-18T09:50:12.317Z,46.53
2019-02-18T09:52:40.950Z,50.90
2019-02-18T09:55:10.725Z,51.43
2019-02-18T09:57:39.297Z,50.93
2019-02-18T10:00:10.742Z,46.77
2019-02-18T10:02:39.313Z,45.90
2019-02-18T10:05:08.584Z,46.93
2019-02-18T10:07:37.224Z,44.10
2019-02-18T10:10:08.108Z,42.30
2019-02-18T10:12:36.681Z,47.33
2019-02-18T10:15:08.061Z,44.70
2019-02-18T10:17:36.601Z,47.07
2019-02-18T10:20:08.417Z,41.33
2019-02-18T10:22:37.092Z,39.80
2019-02-18T10:25:11.093Z,41.70
2019-02-18T10:27:39.929Z,41.03
2019-02-18T10:30:10.606Z,38.37
2019-02-18T10:32:39.217Z,39.63
2019-02-18T10:35:10.497Z,39.70
2019-02-18T10:37:39.032Z,34.93
2019-02-18T10:40:09.440Z,44.80
2019-02-18T10:42:38.078Z,37.93
2019-02-18T10:45:09.929Z,35.37
2019-02-18T10:47:38.496Z,34.87
2019-02-18T10:50:09.641Z,34.30
2019-02-18T10:52:38.218Z,33.80
2019-02-18T10:55:09.002Z,37.70
2019-02-18T10:57:37.865Z,36.57
2019-02-18T11:00:12.571Z,32.87
2019-02-18T11:02:41.153Z,35.07
2019-02-18T11:05:09.841Z,33.60
2019-02-18T11:07:38.521Z,32.50
2019-02-18T11:10:12.473Z,41.80
2019-02-18T11:12:41.080Z,31.37
2019-02-18T11:15:12.084Z,36.03
2019-02-18T11:17:40.617Z,34.80
2019-02-18T11:20:12.716Z,32.50
2019-02-18T11:22:41.396Z,31.33
2019-02-18T11:25:14.669Z,39.30
2019-02-18T11:27:43.518Z,32.80
2019-02-18T11:30:17.429Z,33.47
2019-02-18T11:32:46.109Z,33.60
2019-02-18T11:35:14.750Z,29.93
2019-02-18T11:37:43.625Z,28.30
2019-02-18T11:40:15.009Z,27.73
2019-02-18T11:42:43.554Z,29.27
2019-02-18T11:45:14.412Z,29.10
2019-02-18T11:47:42.977Z,28.00
2019-02-18T11:50:15.219Z,27.60
2019-02-18T11:52:43.859Z,26.70
2019-02-18T11:55:13.340Z,28.43
2019-02-18T11:57:42.276Z,30.53
2019-02-18T12:00:15.337Z,24.03
2019-02-18T12:02:43.972Z,31.13
2019-02-18T12:05:13.154Z,25.53
2019-02-18T12:07:42.161Z,25.30
2019-02-18T12:10:14.235Z,20.20
2019-02-18T12:12:43.161Z,18.27
2019-02-18T12:15:15.810Z,22.67
2019-02-18T12:17:44.346Z,25.30
2019-02-18T12:20:16.672Z,25.17
2019-02-18T12:22:45.221Z,25.30
2019-02-18T12:25:14.031Z,24.47
2019-02-18T12:27:42.965Z,22.30
2019-02-18T12:30:15.676Z,23.70
2019-02-18T12:32:44.297Z,26.17
2019-02-18T12:35:13.598Z,30.07
2019-02-18T12:37:42.209Z,29.77
2019-02-18T12:40:12.626Z,34.53
2019-02-18T12:42:42.406Z,39.00
2019-02-18T12:45:13.540Z,30.17
2019-02-18T12:47:42.156Z,29.60
2019-02-18T12:50:11.972Z,26.80
2019-02-18T12:52:40.577Z,20.67
2019-02-18T12:55:11.350Z,23.17
2019-02-18T12:57:40.666Z,21.77
2019-02-18T13:00:12.540Z,19.30
2019-02-18T13:02:44.142Z,22.83
2019-02-18T13:05:11.713Z,17.27
2019-02-18T13:07:40.328Z,17.87
2019-02-18T13:10:10.479Z,18.67
2019-02-18T13:12:39.116Z,18.23
2019-02-18T13:15:10.797Z,17.63
2019-02-18T13:17:39.684Z,21.20
2019-02-18T13:20:08.857Z,21.53
2019-02-18T13:22:37.496Z,19.47
2019-02-18T13:25:07.477Z,17.80
2019-02-18T13:27:36.113Z,14.10
2019-02-18T13:30:10.757Z,14.30
2019-02-18T13:32:39.456Z,13.90
2019-02-18T13:35:08.073Z,15.83
2019-02-18T13:37:36.713Z,13.60
2019-02-18T13:40:05.760Z,14.57
2019-02-18T13:42:34.329Z,12.83
2019-02-18T13:45:03.722Z,19.57
2019-02-18T13:47:32.289Z,18.80
2019-02-18T13:50:00.962Z,13.13
2019-02-18T13:52:29.593Z,11.87
2019-02-18T13:54:58.134Z,10.10
2019-02-18T13:57:27.048Z,11.57
2019-02-18T13:59:56.124Z,10.33
2019-02-18T14:02:24.681Z,13.73
2019-02-18T14:04:53.288Z,10.60
2019-02-18T14:07:21.928Z,12.90
2019-02-18T14:09:50.467Z,13.03
2019-02-18T14:12:19.000Z,13.80
2019-02-18T14:14:47.858Z,12.87
2019-02-18T14:17:16.401Z,11.80
2019-02-18T14:19:44.965Z,13.10
2019-02-18T14:22:13.948Z,19.03
2019-02-18T14:24:42.584Z,12.90
2019-02-18T14:27:11.123Z,13.40
2019-02-18T14:29:39.692Z,15.63
2019-02-18T14:32:08.600Z,15.60
2019-02-18T14:34:37.165Z,14.23
2019-02-18T14:37:05.848Z,14.83
2019-02-18T14:39:34.489Z,15.33
2019-02-18T14:42:03.510Z,13.30
2019-02-18T14:44:32.121Z,17.43
2019-02-18T14:47:01.069Z,16.00
2019-02-18T14:49:29.607Z,13.80
2019-02-18T14:51:58.173Z,14.73
2019-02-18T14:54:26.708Z,21.47
2019-02-18T14:56:55.348Z,19.97
2019-02-18T14:59:24.033Z,17.83
2019-02-18T15:01:52.665Z,15.57
2019-02-18T15:04:21.209Z,19.43
2019-02-18T15:06:49.917Z,13.77
2019-02-18T15:09:18.529Z,16.43
2019-02-18T15:11:47.169Z,15.00
2019-02-18T15:14:15.700Z,20.50
2019-02-18T15:16:44.285Z,13.63
2019-02-18T15:19:13.116Z,15.70
2019-02-18T15:21:41.725Z,16.90
2019-02-18T15:24:10.290Z,16.23
2019-02-18T15:26:39.005Z,17.50
2019-02-18T15:29:07.548Z,16.30
2019-02-18T15:31:36.696Z,19.23
2019-02-18T15:34:05.633Z,22.53
2019-02-18T15:36:34.605Z,16.03
2019-02-18T15:39:04.085Z,20.57
2019-02-18T15:41:32.696Z,23.47
2019-02-18T15:44:01.261Z,18.40
2019-02-18T15:46:30.173Z,18.43
2019-02-18T15:48:59.218Z,22.00
2019-02-18T15:51:27.829Z,23.30
2019-02-18T15:53:56.741Z,26.60
2019-02-18T15:56:25.280Z,21.33
2019-02-18T15:58:54.316Z,20.87
2019-02-18T16:01:23.003Z,26.33
2019-02-18T16:03:51.578Z,22.57
2019-02-18T16:06:20.182Z,24.60
2019-02-18T16:08:48.724Z,21.43
2019-02-18T16:11:17.293Z,20.47
2019-02-18T16:13:45.837Z,19.40
2019-02-18T16:16:14.404Z,23.67
2019-02-18T16:18:42.953Z,31.00
2019-02-18T16:21:11.830Z,18.73
2019-02-18T16:23:40.374Z,22.70
2019-02-18T16:26:08.941Z,22.13
2019-02-18T16:28:37.485Z,30.23
2019-02-18T16:31:06.193Z,31.17
2019-02-18T16:33:34.736Z,23.07
2019-02-18T16:36:03.322Z,29.53
2019-02-18T16:38:31.869Z,24.83
2019-02-18T16:41:00.435Z,26.53
2019-02-18T16:43:29.641Z,31.87
2019-02-18T16:45:58.212Z,29.10
2019-02-18T16:48:27.151Z,28.03
2019-02-18T16:50:55.817Z,29.37
2019-02-18T16:53:24.352Z,26.70
2019-02-18T16:55:53.285Z,26.23
2019-02-18T16:58:21.825Z,27.60
2019-02-18T17:00:57.284Z,25.53
2019-02-18T17:03:20.666Z,22.43
2019-02-18T17:05:49.214Z,26.87
2019-02-18T17:08:17.787Z,26.60
2019-02-18T17:10:46.333Z,30.50
2019-02-18T17:13:15.209Z,30.37
2019-02-18T17:15:44.202Z,26.70
2019-02-18T17:18:12.768Z,25.37
2019-02-18T17:20:41.313Z,26.90
2019-02-18T17:23:10.244Z,36.53
2019-02-18T17:25:38.788Z,25.13
2019-02-18T17:28:07.366Z,30.40
2019-02-18T17:30:35.905Z,27.07
2019-02-18T17:33:04.472Z,29.60
2019-02-18T17:35:33.080Z,26.07
2019-02-18T17:38:01.999Z,33.30
2019-02-18T17:40:30.540Z,30.80
2019-02-18T17:42:59.113Z,31.23
2019-02-18T17:45:27.730Z,29.03
2019-02-18T17:47:56.305Z,32.60
2019-02-18T17:50:24.844Z,41.67
2019-02-18T17:52:53.392Z,35.50
2019-02-18T17:55:22.437Z,31.73
2019-02-18T17:57:50.982Z,35.03
2019-02-18T18:00:29.984Z,38.50
2019-02-18T18:02:58.867Z,36.30
2019-02-18T18:05:27.505Z,30.20
2019-02-18T18:07:56.044Z,37.27
2019-02-18T18:10:24.945Z,33.57
2019-02-18T18:12:53.569Z,42.70
2019-02-18T18:15:22.601Z,41.00
2019-02-18T18:17:51.149Z,34.03
2019-02-18T18:20:19.717Z,41.97
2019-02-18T18:22:48.256Z,42.17
2019-02-18T18:25:17.101Z,48.47
2019-02-18T18:27:45.655Z,36.43
2019-02-18T18:30:19.045Z,39.13
2019-02-18T18:32:47.568Z,31.30
2019-02-18T18:35:16.196Z,44.13
2019-02-18T18:37:44.740Z,34.37
2019-02-18T18:40:15.997Z,31.70
2019-02-18T18:42:44.908Z,31.00
2019-02-18T18:45:15.717Z,34.70
2019-02-18T18:47:44.881Z,33.40
2019-02-18T18:50:21.100Z,34.70
2019-02-18T18:52:49.737Z,35.70
2019-02-18T18:55:18.788Z,34.00
2019-02-18T18:57:47.681Z,32.30
2019-02-18T19:00:20.624Z,34.90
2019-02-18T19:02:49.192Z,37.27
2019-02-18T19:05:18.209Z,40.83
2019-02-18T19:07:46.828Z,40.33
2019-02-18T19:10:15.821Z,39.13
2019-02-18T19:12:44.369Z,31.57
2019-02-18T19:15:14.571Z,33.30
2019-02-18T19:17:43.119Z,39.87
2019-02-18T19:20:12.484Z,34.23
2019-02-18T19:22:41.069Z,36.77
2019-02-18T19:25:11.449Z,52.50
2019-02-18T19:27:40.080Z,46.63
2019-02-18T19:30:14.235Z,31.50
2019-02-18T19:32:42.865Z,39.73
2019-02-18T19:35:11.406Z,40.30
2019-02-18T19:37:39.942Z,45.60
2019-02-18T19:40:11.018Z,37.93
2019-02-18T19:42:39.557Z,46.60
2019-02-18T19:45:11.545Z,37.20
2019-02-18T19:47:40.677Z,42.37
2019-02-18T19:50:09.376Z,39.80
2019-02-18T19:52:37.984Z,36.17
2019-02-18T19:55:09.566Z,35.20
2019-02-18T19:57:38.092Z,38.53
2019-02-18T20:00:15.962Z,41.70
2019-02-18T20:02:44.575Z,46.23
2019-02-18T20:05:13.353Z,34.67
2019-02-18T20:07:41.985Z,38.50
2019-02-18T20:10:11.660Z,38.43
2019-02-18T20:12:40.365Z,38.30
2019-02-18T20:15:11.749Z,37.00
2019-02-18T20:17:40.680Z,31.50
2019-02-18T20:20:12.620Z,37.43
2019-02-18T20:22:41.318Z,38.57
2019-02-18T20:25:11.290Z,31.67
2019-02-18T20:27:39.925Z,36.47
2019-02-18T20:30:13.864Z,33.97
2019-02-18T20:32:42.499Z,33.83
2019-02-18T20:35:11.510Z,34.67
2019-02-18T20:37:40.485Z,39.47
2019-02-18T20:40:11.148Z,36.57
2019-02-18T20:42:40.060Z,35.93
2019-02-18T20:45:13.460Z,36.30
2019-02-18T20:47:42.404Z,36.50
2019-02-18T20:50:12.504Z,37.73
2019-02-18T20:52:41.112Z,44.70
2019-02-18T20:55:12.478Z,49.90
2019-02-18T20:57:41.081Z,48.00
2019-02-18T21:00:15.704Z,44.20
2019-02-18T21:02:44.552Z,57.17
2019-02-18T21:05:13.184Z,45.03
2019-02-18T21:07:41.860Z,42.37
2019-02-18T21:10:16.289Z,38.67
2019-02-18T21:12:44.895Z,43.43
2019-02-18T21:15:13.832Z,38.13
2019-02-18T21:17:42.399Z,40.70
2019-02-18T21:20:12.477Z,36.83
2019-02-18T21:22:41.178Z,37.10
2019-02-18T21:25:11.453Z,35.90
2019-02-18T21:27:40.076Z,37.43
2019-02-18T21:30:16.485Z,43.20
2019-02-18T21:32:45.117Z,39.53
2019-02-18T21:35:13.788Z,43.13
2019-02-18T21:37:42.628Z,42.67
2019-02-18T21:40:12.336Z,37.30
2019-02-18T21:42:41.019Z,36.00
2019-02-18T21:45:12.666Z,42.57
2019-02-18T21:47:41.200Z,36.97
2019-02-18T21:50:11.817Z,40.77
2019-02-18T21:52:40.785Z,38.90
2019-02-18T21:55:13.233Z,37.33
2019-02-18T21:57:42.069Z,35.53
2019-02-18T22:00:20.876Z,36.40
2019-02-18T22:02:50.085Z,41.30
2019-02-18T22:05:18.805Z,38.10
2019-02-18T22:07:47.376Z,35.80
2019-02-18T22:10:16.140Z,34.50
2019-02-18T22:12:44.776Z,42.50
2019-02-18T22:15:14.857Z,41.93
2019-02-18T22:17:43.496Z,40.90
2019-02-18T22:20:13.673Z,37.37
2019-02-18T22:22:42.244Z,39.50
2019-02-18T22:25:12.113Z,41.07
2019-02-18T22:27:40.744Z,33.37
2019-02-18T22:30:15.249Z,35.77
2019-02-18T22:32:43.981Z,37.40
2019-02-18T22:35:12.942Z,30.43
2019-02-18T22:37:41.501Z,37.30
2019-02-18T22:40:13.800Z,39.47
2019-02-18T22:42:42.434Z,37.90
2019-02-18T22:45:11.908Z,43.63
2019-02-18T22:47:40.878Z,36.47
2019-02-18T22:50:11.319Z,36.63
2019-02-18T22:52:40.226Z,38.00
2019-02-18T22:55:10.097Z,35.70
2019-02-18T22:57:38.996Z,36.37
2019-02-18T23:00:13.582Z,37.50
2019-02-18T23:02:44.829Z,34.57
2019-02-18T23:05:13.861Z,33.67
2019-02-18T23:07:42.396Z,33.90
2019-02-18T23:10:11.236Z,35.80
2019-02-18T23:12:39.774Z,42.83
2019-02-18T23:15:08.478Z,41.83
2019-02-18T23:17:37.008Z,36.97
2019-02-18T23:20:05.717Z,40.57
2019-02-18T23:22:34.552Z,35.67
2019-02-18T23:25:03.112Z,35.83
2019-02-18T23:27:31.651Z,36.23
2019-02-18T23:30:00.199Z,41.90
2019-02-18T23:32:28.762Z,40.77
2019-02-18T23:34:57.585Z,38.40
2019-02-18T23:37:26.150Z,40.00
2019-02-18T23:39:54.684Z,42.83
2019-02-18T23:42:23.240Z,41.73
2019-02-18T23:44:59.023Z,35.30
2019-02-18T23:47:21.908Z,36.43
2019-02-18T23:49:50.726Z,42.20
2019-02-18T23:52:19.216Z,34.90
2019-02-18T23:54:47.753Z,39.43
2019-02-18T23:57:16.688Z,36.87
2019-02-18T23:59:45.220Z,34.20
